• Join FlightAware (Why Join?)
  • Login
  • US Flag 
09:11AM EDT


 

Airport Tracker/Info


-or-


 

Live Flight TrackerFlight Track Log ✈ N569LM ✈ 27-Jun-2013 ✈ KSAT - KUVA

Flight Track Log - Related Links

Times and Time Zones

All times are in EDT time to prevent confusion due to time zone crossing. See the N569LM flight status page for this flight to view local times or setup timezone preferences in your user account.

Time Position Orientation Groundspeed Altitude Reporting Facility
EDT Latitude Longitude Course Direction KTS MPH feet Rate Location/Type
02:01PM 29.5269 -98.4658 131° Southeast 142 163 1,600  Level Houston Center
02:02PM 29.4983 -98.4283 131° Southeast 187 215 3,400 1,320 Climbing Houston Center
02:03PM 29.4475 -98.4008 155° Southeast 233 268 4,100 480 Climbing Houston Center
02:04PM 29.3850 -98.4061 184° South 225 259 4,400 420 Climbing Houston Center
02:05PM 29.3550 -98.4078 183° South 219 252 4,800 660 Climbing Houston Center
02:05PM 29.3253 -98.4181 197° South 231 266 5,100 480 Climbing Houston Center
02:06PM 29.3089 -98.4531 242° Southwest 245 282 5,300 660 Climbing Houston Center
02:06PM 29.3067 -98.4897 266° West 259 298 5,800 660 Climbing Houston Center
02:07PM 29.3064 -98.5322 270° West 247 284 6,000 360 Climbing Houston Center
02:08PM 29.3019 -98.6175 267° West 249 287 6,400 240 Climbing Houston Center
02:09PM 29.2969 -98.6986 266° West 256 295 6,500  Climbing Houston Center
02:10PM 29.2903 -98.7897 265° West 266 306 6,500  Level Houston Center
02:11PM 29.2842 -98.8747 265° West 268 308 6,500  Level Houston Center
02:12PM 29.2775 -98.9661 265° West 268 308 6,500  Level Houston Center
02:13PM 29.2678 -99.0528 263° West 273 314 6,500  Level Houston Center
02:14PM 29.2614 -99.1372 265° West 269 310 6,500  Level Houston Center
02:15PM 29.2567 -99.2297 267° West 271 312 6,500  Level Houston Center
02:16PM 29.2389 -99.3122 256° West 270 311 6,500 -300 Level Houston Center
02:17PM 29.2344 -99.3972 267° West 271 312 6,000 -720 Descending Houston Center
02:18PM 29.2331 -99.4753 269° West 248 285 5,100 -780 Descending Houston Center
02:19PM 29.2258 -99.5497 264° West 235 270 4,400 -720 Descending Houston Center